Time;durP1;ratioP1;P1;durP2;ratioP2;P2;SDS_P1;SDS_P2;PMS_P1;PMS_P2;Temp;Humidity;BMP_temperature;BMP_pressure;BME280_temperature;BME280_humidity;BME280_pressure;Samples;Min_cycle;Max_cycle;Signal;HPM_P1;HPM_P2
2022/09/23 00:01:26;;;;;;;16.80;5.60;;;;;;;5.14;81.54;100916.75;105816;1274;25266;-64
2022/09/23 00:03:58;;;;;;;19.20;6.40;;;;;;;5.10;81.57;100913.90;105701;1274;24440;-64
2022/09/23 00:06:30;;;;;;;18.40;5.00;;;;;;;5.07;81.60;100914.82;105736;1273;22719;-63
2022/09/23 00:09:02;;;;;;;18.20;5.90;;;;;;;5.05;81.53;100915.74;105605;1274;24235;-65
2022/09/23 00:11:34;;;;;;;23.10;6.10;;;;;;;5.02;81.61;100912.80;105704;1274;22701;-64
2022/09/23 00:14:05;;;;;;;22.40;6.20;;;;;;;4.99;81.57;100912.30;105668;1274;24442;-64
2022/09/23 00:16:37;;;;;;;21.20;7.30;;;;;;;4.96;81.60;100905.71;105678;1274;22829;-63
2022/09/23 00:19:09;;;;;;;20.00;6.20;;;;;;;4.92;81.72;100905.48;105705;1273;25495;-64
2022/09/23 00:21:41;;;;;;;20.70;7.10;;;;;;;4.90;81.80;100905.73;105667;1274;24316;-64
2022/09/23 00:24:12;;;;;;;26.20;7.30;;;;;;;4.89;81.97;100903.87;105713;1272;24063;-64
2022/09/23 00:26:43;;;;;;;22.90;7.60;;;;;;;4.89;82.34;100904.17;105623;1274;22625;-63
2022/09/23 00:29:15;;;;;;;25.00;7.60;;;;;;;4.89;82.32;100898.02;105709;1274;24245;-64
2022/09/23 00:31:47;;;;;;;21.80;8.30;;;;;;;4.88;82.55;100897.86;105625;1274;22810;-64
2022/09/23 00:34:18;;;;;;;19.70;7.40;;;;;;;4.89;82.49;100898.83;105744;1274;25122;-65
2022/09/23 00:36:49;;;;;;;20.00;6.10;;;;;;;4.86;82.46;100896.58;105728;1274;25424;-63
2022/09/23 00:39:20;;;;;;;21.40;7.30;;;;;;;4.84;82.44;100891.89;105760;1272;22537;-65
2022/09/23 00:41:53;;;;;;;22.30;7.70;;;;;;;4.83;82.49;100894.98;105725;1273;24245;-63
2022/09/23 00:44:44;;;;;;;22.20;7.50;;;;;;;4.82;82.54;100893.01;105583;1274;22540;-64
2022/09/23 00:47:21;;;;;;;19.60;6.80;;;;;;;4.81;82.54;100893.92;105720;1274;22808;-64
2022/09/23 00:50:00;;;;;;;26.60;7.60;;;;;;;4.78;82.50;100894.35;105768;1274;22554;-63
2022/09/23 00:52:36;;;;;;;21.10;6.70;;;;;;;4.74;82.56;100890.16;105677;1274;22798;-64
2022/09/23 00:55:13;;;;;;;26.30;7.20;;;;;;;4.71;82.57;100886.75;105662;1274;23445;-63
2022/09/23 00:57:47;;;;;;;18.90;6.30;;;;;;;4.67;82.60;100886.17;105789;1274;22770;-64
2022/09/23 01:00:18;;;;;;;18.10;6.40;;;;;;;4.64;82.57;100884.60;105690;1275;22618;-63
2022/09/23 01:02:49;;;;;;;22.50;7.00;;;;;;;4.61;82.40;100883.61;105765;1274;24272;-65
2022/09/23 01:05:21;;;;;;;25.20;7.20;;;;;;;4.59;82.30;100879.30;105567;1273;25336;-63
2022/09/23 01:07:53;;;;;;;22.90;6.60;;;;;;;4.57;82.30;100874.21;105774;1274;22652;-63
2022/09/23 01:10:30;;;;;;;19.30;6.40;;;;;;;4.54;82.34;100873.16;105671;1274;24218;-63
2022/09/23 01:13:15;;;;;;;20.40;6.50;;;;;;;4.52;82.27;100870.43;105676;1274;22559;-63
2022/09/23 01:15:53;;;;;;;20.10;6.40;;;;;;;4.51;82.30;100870.52;105707;1274;25544;-63
2022/09/23 01:18:34;;;;;;;18.80;6.60;;;;;;;4.47;82.26;100869.90;106459;1272;25384;-63
2022/09/23 01:21:21;;;;;;;22.30;6.80;;;;;;;4.43;82.36;100872.41;105810;1273;22679;-65
2022/09/23 01:24:29;;;;;;;24.20;7.40;;;;;;;4.40;82.43;100870.09;105745;1273;25372;-63
2022/09/23 01:27:11;;;;;;;19.80;7.00;;;;;;;4.36;82.52;100873.23;105604;1273;22526;-64
2022/09/23 01:30:25;;;;;;;19.70;6.70;;;;;;;4.32;82.53;100870.08;105689;1274;22619;-64
2022/09/23 01:33:07;;;;;;;19.90;6.40;;;;;;;4.28;82.55;100867.39;105606;1273;24296;-64
2022/09/23 01:35:56;;;;;;;19.70;5.80;;;;;;;4.26;82.51;100867.66;105638;1274;26092;-64
2022/09/23 01:38:38;;;;;;;20.00;7.10;;;;;;;4.22;82.43;100866.38;105650;1274;22535;-62
2022/09/23 01:41:19;;;;;;;18.60;6.40;;;;;;;4.20;82.53;100863.64;105598;1275;22570;-64
2022/09/23 01:44:00;;;;;;;22.70;6.40;;;;;;;4.17;82.49;100860.22;105660;1272;25352;-63
2022/09/23 01:46:36;;;;;;;23.50;7.00;;;;;;;4.14;82.44;100854.82;105665;1273;25837;-63
2022/09/23 01:49:15;;;;;;;22.10;7.80;;;;;;;4.10;82.58;100856.23;105750;1275;22557;-63
2022/09/23 01:51:52;;;;;;;22.40;7.00;;;;;;;4.08;82.62;100858.88;105611;1273;25339;-63
2022/09/23 01:54:28;;;;;;;19.90;6.70;;;;;;;4.06;82.57;100857.97;105648;1271;24706;-64
2022/09/23 01:57:05;;;;;;;18.30;6.30;;;;;;;4.04;82.54;100858.15;105821;1271;24291;-63
2022/09/23 01:59:38;;;;;;;22.30;6.50;;;;;;;4.01;82.58;100860.40;105759;1273;24333;-64
2022/09/23 02:02:15;;;;;;;19.80;5.60;;;;;;;3.98;82.57;100856.83;105667;1274;25405;-63
2022/09/23 02:04:52;;;;;;;19.20;5.70;;;;;;;3.95;82.66;100855.37;105798;1271;25551;-63
2022/09/23 02:07:28;;;;;;;18.90;5.70;;;;;;;3.92;82.73;100857.31;105989;1273;26337;-63
2022/09/23 02:10:05;;;;;;;21.50;6.40;;;;;;;3.91;82.81;100853.16;105775;1273;22534;-63
2022/09/23 02:12:39;;;;;;;17.40;5.50;;;;;;;3.88;82.85;100853.27;105687;1273;22613;-63
2022/09/23 02:15:14;;;;;;;20.70;5.40;;;;;;;3.87;82.98;100851.89;105674;1271;24444;-63
2022/09/23 02:17:50;;;;;;;20.00;5.40;;;;;;;3.86;83.09;100850.39;105786;1273;22538;-63
2022/09/23 02:20:28;;;;;;;18.60;6.00;;;;;;;3.85;83.19;100851.89;105655;1274;25330;-64
2022/09/23 02:23:06;;;;;;;15.90;4.80;;;;;;;3.85;83.43;100852.21;105589;1273;22542;-63
2022/09/23 02:25:45;;;;;;;17.00;5.00;;;;;;;3.87;83.56;100853.61;105569;1274;24380;-62
2022/09/23 02:28:25;;;;;;;17.30;5.70;;;;;;;3.87;83.58;100849.02;105610;1272;25257;-63
2022/09/23 02:31:06;;;;;;;16.70;5.70;;;;;;;3.89;83.72;100848.46;105637;1274;24312;-62
2022/09/23 02:33:41;;;;;;;17.50;4.80;;;;;;;3.88;83.55;100847.60;105599;1273;24336;-63
2022/09/23 02:36:24;;;;;;;18.00;5.70;;;;;;;3.87;83.59;100849.27;105677;1273;22606;-63
2022/09/23 02:39:00;;;;;;;13.90;4.40;;;;;;;3.85;83.63;100849.30;105685;1273;24294;-64
2022/09/23 02:41:39;;;;;;;20.60;5.80;;;;;;;3.84;83.61;100849.23;105551;1273;22674;-63
2022/09/23 02:44:12;;;;;;;17.00;5.00;;;;;;;3.80;83.59;100847.73;105737;1273;25365;-63
2022/09/23 02:46:44;;;;;;;20.10;5.20;;;;;;;3.79;83.57;100846.80;105693;1271;25268;-63
2022/09/23 02:49:20;;;;;;;21.80;6.30;;;;;;;3.78;83.69;100848.08;105633;1273;22560;-62
2022/09/23 02:51:53;;;;;;;17.80;5.60;;;;;;;3.79;83.68;100844.98;105659;1273;22554;-62
2022/09/23 02:54:27;;;;;;;18.00;5.40;;;;;;;3.78;83.69;100843.50;105796;1273;24269;-63
2022/09/23 02:57:04;;;;;;;21.30;5.60;;;;;;;3.77;83.66;100840.91;105623;1273;22556;-62
2022/09/23 02:59:36;;;;;;;17.90;5.20;;;;;;;3.75;83.61;100841.48;105651;1273;24259;-63
2022/09/23 03:02:43;;;;;;;18.40;5.40;;;;;;;3.73;83.59;100839.95;105694;1273;22530;-63
2022/09/23 03:05:24;;;;;;;14.20;4.40;;;;;;;3.71;83.69;100841.08;105614;1273;25275;-64
2022/09/23 03:08:11;;;;;;;20.20;5.10;;;;;;;3.71;83.60;100840.93;105579;1273;25290;-63
2022/09/23 03:10:53;;;;;;;18.60;5.00;;;;;;;3.70;83.69;100841.03;105597;1273;22561;-63
2022/09/23 03:13:35;;;;;;;18.00;4.90;;;;;;;3.68;83.72;100833.95;105621;1273;24316;-64
2022/09/23 03:16:17;;;;;;;20.40;6.20;;;;;;;3.67;83.83;100837.66;105592;1273;22544;-63
2022/09/23 03:18:53;;;;;;;19.20;6.00;;;;;;;3.69;84.00;100836.46;105732;1273;22532;-64
2022/09/23 03:21:29;;;;;;;23.40;7.20;;;;;;;3.70;84.13;100835.65;105688;1273;22538;-63
2022/09/23 03:24:04;;;;;;;16.30;5.80;;;;;;;3.70;84.30;100834.55;105673;1273;22651;-63
2022/09/23 03:26:39;;;;;;;19.20;6.10;;;;;;;3.70;84.25;100832.34;105646;1271;26501;-62
2022/09/23 03:29:11;;;;;;;23.00;6.70;;;;;;;3.69;84.30;100831.09;105899;1272;25518;-62
2022/09/23 03:31:43;;;;;;;20.00;6.20;;;;;;;3.68;84.52;100825.90;105932;1273;24329;-64
2022/09/23 03:34:18;;;;;;;21.50;7.10;;;;;;;3.67;84.49;100824.02;105426;1273;24382;-63
2022/09/23 03:36:59;;;;;;;25.40;8.70;;;;;;;3.65;84.37;100826.58;108611;1273;22557;-63
2022/09/23 03:39:36;;;;;;;27.60;11.00;;;;;;;3.62;84.21;100826.61;105758;1272;25252;-63
2022/09/23 03:42:12;;;;;;;31.90;12.00;;;;;;;3.60;84.50;100825.23;105635;1273;22544;-63
2022/09/23 03:44:46;;;;;;;36.10;12.80;;;;;;;3.58;84.39;100823.38;107199;1272;24270;-62
2022/09/23 03:47:18;;;;;;;34.20;14.10;;;;;;;3.56;84.27;100823.88;105636;1273;24291;-62
2022/09/23 03:49:50;;;;;;;34.30;14.50;;;;;;;3.54;84.18;100820.19;105512;1273;24424;-63
2022/09/23 03:52:24;;;;;;;36.50;14.10;;;;;;;3.53;84.18;100817.38;105584;1273;25401;-62
2022/09/23 03:58:18;;;;;;;28.70;13.10;;;;;;;3.48;84.04;100807.35;105529;1273;22530;-63
2022/09/23 04:00:53;;;;;;;31.00;13.50;;;;;;;3.47;84.01;100811.88;105611;1273;22529;-62
2022/09/23 04:03:28;;;;;;;34.50;12.40;;;;;;;3.44;84.09;100816.50;105561;1273;23232;-63
2022/09/23 04:05:59;;;;;;;32.60;12.20;;;;;;;3.42;84.24;100813.84;105543;1271;22534;-63
2022/09/23 04:08:31;;;;;;;37.00;13.00;;;;;;;3.39;84.23;100815.52;105734;1273;22779;-62
2022/09/23 04:11:03;;;;;;;43.60;17.70;;;;;;;3.38;84.19;100814.38;105664;1273;24441;-63
2022/09/23 04:13:34;;;;;;;58.60;23.70;;;;;;;3.36;84.30;100815.66;105725;1273;22671;-63
2022/09/23 04:16:06;;;;;;;50.60;20.30;;;;;;;3.33;84.28;100814.12;105682;1273;25312;-64
2022/09/23 04:18:39;;;;;;;51.20;18.90;;;;;;;3.32;84.25;100815.32;105681;1273;25242;-63
2022/09/23 04:21:10;;;;;;;42.90;16.50;;;;;;;3.29;84.22;100816.70;105724;1273;25369;-63
2022/09/23 04:23:42;;;;;;;50.80;18.50;;;;;;;3.27;84.24;100817.50;105834;1273;22548;-62
2022/09/23 04:26:15;;;;;;;46.00;16.30;;;;;;;3.26;84.27;100818.31;105913;1273;22964;-62
2022/09/23 04:28:46;;;;;;;37.10;13.90;;;;;;;3.26;84.46;100817.23;105852;1273;22562;-63
2022/09/23 04:31:18;;;;;;;29.10;11.90;;;;;;;3.25;84.69;100817.77;105888;1273;25554;-63
2022/09/23 04:33:49;;;;;;;38.60;13.90;;;;;;;3.25;85.00;100817.45;105780;1273;24312;-63
2022/09/23 04:36:21;;;;;;;46.40;15.30;;;;;;;3.26;85.31;100816.80;105837;1273;23045;-63
2022/09/23 04:38:53;;;;;;;43.60;14.90;;;;;;;3.28;85.49;100817.48;105722;1273;25528;-63
2022/09/23 04:41:24;;;;;;;46.90;15.10;;;;;;;3.29;85.48;100814.10;105899;1273;22567;-63
2022/09/23 04:43:58;;;;;;;41.00;14.80;;;;;;;3.29;85.41;100815.90;107220;1272;22543;-63
2022/09/23 04:46:29;;;;;;;38.40;14.60;;;;;;;3.30;85.61;100815.90;105995;1273;23254;-63
2022/09/23 04:49:01;;;;;;;36.30;13.40;;;;;;;3.30;85.59;100819.68;105941;1272;22554;-60
2022/09/23 04:51:33;;;;;;;35.70;12.50;;;;;;;3.30;85.57;100818.27;105585;1273;22554;-62
2022/09/23 04:54:06;;;;;;;37.70;11.40;;;;;;;3.31;85.54;100820.39;107342;1271;24293;-61
2022/09/23 04:56:38;;;;;;;36.30;12.90;;;;;;;3.30;85.45;100819.84;105547;1273;25306;-62
2022/09/23 04:59:11;;;;;;;38.50;14.70;;;;;;;3.30;85.42;100820.38;105678;1272;22557;-63
2022/09/23 05:01:42;;;;;;;38.70;14.10;;;;;;;3.28;85.41;100826.26;105652;1273;24358;-64
2022/09/23 05:04:14;;;;;;;45.40;14.20;;;;;;;3.28;85.59;100826.81;105739;1273;22765;-63
2022/09/23 05:06:46;;;;;;;44.20;14.60;;;;;;;3.28;85.68;100825.78;105773;1273;22555;-63
2022/09/23 05:09:19;;;;;;;42.20;15.60;;;;;;;3.28;85.67;100824.92;105734;1271;25077;-63
2022/09/23 05:11:51;;;;;;;44.00;16.40;;;;;;;3.28;85.74;100824.05;105586;1273;22768;-62
2022/09/23 05:14:23;;;;;;;48.80;17.60;;;;;;;3.28;85.68;100824.29;105789;1273;25265;-63
2022/09/23 05:16:54;;;;;;;49.00;18.40;;;;;;;3.29;85.83;100824.66;105835;1273;22542;-63
2022/09/23 05:19:25;;;;;;;46.50;17.40;;;;;;;3.30;85.88;100828.27;105739;1273;25417;-62
2022/09/23 05:21:57;;;;;;;42.40;15.70;;;;;;;3.31;86.17;100827.86;106038;1273;24688;-62
2022/09/23 05:24:28;;;;;;;44.00;17.20;;;;;;;3.34;86.32;100822.32;107313;1272;22553;-62
2022/09/23 05:27:01;;;;;;;49.20;17.50;;;;;;;3.36;86.40;100826.45;105719;1273;25538;-64
2022/09/23 05:29:32;;;;;;;41.00;16.50;;;;;;;3.39;86.57;100826.02;106105;1271;22638;-63
2022/09/23 05:32:04;;;;;;;37.30;16.20;;;;;;;3.43;86.64;100829.05;106161;1273;22531;-61
2022/09/23 05:34:35;;;;;;;38.70;13.40;;;;;;;3.46;86.77;100830.42;106215;1273;22553;-62
2022/09/23 05:37:06;;;;;;;33.60;12.60;;;;;;;3.51;86.99;100832.64;106123;1273;22548;-62
2022/09/23 05:39:38;;;;;;;31.00;11.70;;;;;;;3.55;87.25;100832.81;106037;1273;22531;-63
2022/09/23 05:42:11;;;;;;;25.40;9.20;;;;;;;3.59;87.37;100832.04;105982;1273;24420;-62
2022/09/23 05:44:42;;;;;;;27.00;8.70;;;;;;;3.63;87.55;100831.58;106140;1272;22557;-62
2022/09/23 05:47:15;;;;;;;26.50;9.20;;;;;;;3.68;87.79;100830.55;106028;1272;22591;-63
2022/09/23 05:49:46;;;;;;;29.70;8.90;;;;;;;3.74;87.83;100829.91;106325;1273;22578;-62
2022/09/23 05:52:18;;;;;;;24.00;9.80;;;;;;;3.80;88.19;100831.95;106190;1273;25387;-63
2022/09/23 05:54:50;;;;;;;32.00;8.80;;;;;;;3.86;88.57;100831.45;106146;1273;25256;-63
2022/09/23 05:57:22;;;;;;;22.00;9.50;;;;;;;3.92;88.77;100831.98;106171;1273;22547;-62
2022/09/23 05:59:53;;;;;;;26.70;11.00;;;;;;;3.98;88.94;100830.77;106201;1273;24291;-61
2022/09/23 06:02:27;;;;;;;25.10;10.30;;;;;;;4.05;89.21;100827.50;106137;1273;22529;-62
2022/09/23 06:04:59;;;;;;;25.10;9.90;;;;;;;4.12;89.22;100829.91;106163;1272;22601;-63
2022/09/23 06:07:31;;;;;;;28.50;10.50;;;;;;;4.18;89.48;100835.83;107434;1273;288444;-63
2022/09/23 06:10:03;;;;;;;27.20;10.20;;;;;;;4.25;89.75;100830.14;106161;1273;22571;-63
2022/09/23 06:12:35;;;;;;;29.10;11.40;;;;;;;4.33;89.85;100832.86;106017;1273;22534;-63
2022/09/23 06:15:08;;;;;;;28.50;9.90;;;;;;;4.41;90.26;100833.98;106087;1273;25402;-63
2022/09/23 06:17:39;;;;;;;32.20;12.00;;;;;;;4.50;90.42;100830.81;106048;1273;22755;-63
2022/09/23 06:20:12;;;;;;;29.20;10.30;;;;;;;4.58;90.44;100834.29;105976;1273;25232;-63
2022/09/23 06:22:43;;;;;;;29.40;13.20;;;;;;;4.66;90.66;100833.17;105870;1271;22556;-63
2022/09/23 06:25:15;;;;;;;34.00;12.50;;;;;;;4.75;91.22;100830.88;106026;1273;23989;-63
2022/09/23 06:27:53;;;;;;;34.20;15.00;;;;;;;4.85;91.60;100836.13;105983;1273;22550;-63
2022/09/23 06:30:25;;;;;;;36.70;15.00;;;;;;;4.95;91.84;100837.98;106127;1273;22524;-63
2022/09/23 06:32:57;;;;;;;39.40;15.70;;;;;;;5.07;92.32;100841.05;105958;1271;22555;-64
2022/09/23 06:35:31;;;;;;;38.20;16.80;;;;;;;5.19;92.58;100841.84;106024;1273;22612;-63
2022/09/23 06:38:05;;;;;;;38.60;16.90;;;;;;;5.29;92.72;100840.89;106002;1271;22571;-63
2022/09/23 06:40:36;;;;;;;32.60;16.40;;;;;;;5.39;92.78;100840.52;105924;1271;22689;-63
2022/09/23 06:43:08;;;;;;;39.80;17.00;;;;;;;5.48;92.83;100842.92;105906;1273;25249;-63
2022/09/23 06:45:40;;;;;;;40.90;18.00;;;;;;;5.57;93.10;100843.74;105894;1273;22565;-64
2022/09/23 06:48:11;;;;;;;36.50;17.70;;;;;;;5.67;93.19;100841.31;105980;1273;22649;-64
2022/09/23 06:50:43;;;;;;;36.50;17.10;;;;;;;5.76;93.45;100842.60;105763;1273;22811;-64
2022/09/23 06:53:15;;;;;;;44.70;18.80;;;;;;;5.88;93.74;100844.72;105787;1271;26576;-64
2022/09/23 06:55:46;;;;;;;35.60;17.80;;;;;;;5.98;93.88;100842.09;105881;1272;22606;-64
2022/09/23 06:58:19;;;;;;;39.20;17.80;;;;;;;6.10;93.93;100844.90;105841;1272;22542;-64
2022/09/23 07:00:51;;;;;;;39.80;17.90;;;;;;;6.21;93.93;100840.96;105751;1273;22583;-64
2022/09/23 07:03:23;;;;;;;40.60;16.90;;;;;;;6.32;94.15;100843.20;105994;1271;24249;-64
2022/09/23 07:05:58;;;;;;;37.50;17.60;;;;;;;6.44;94.28;100842.71;105782;1273;22629;-64
2022/09/23 07:08:32;;;;;;;41.10;17.30;;;;;;;6.54;94.01;100841.42;105816;1273;24291;-64
2022/09/23 07:11:05;;;;;;;37.10;17.00;;;;;;;6.64;94.01;100841.96;105660;1271;22562;-64
2022/09/23 07:13:37;;;;;;;36.80;16.80;;;;;;;6.73;94.03;100840.75;105769;1271;25521;-64
2022/09/23 07:16:09;;;;;;;36.30;16.60;;;;;;;6.83;94.19;100844.44;105859;1273;25757;-64
2022/09/23 07:18:41;;;;;;;44.40;17.90;;;;;;;6.94;94.33;100845.55;105848;1273;22557;-64
2022/09/23 07:21:18;;;;;;;31.40;14.80;;;;;;;7.07;94.50;100842.66;105749;1273;22635;-64
2022/09/23 07:23:51;;;;;;;34.70;14.50;;;;;;;7.17;94.20;100846.50;105924;1273;22679;-64
2022/09/23 07:26:25;;;;;;;32.20;14.50;;;;;;;7.29;94.51;100842.21;105725;1273;25221;-65
2022/09/23 07:29:03;;;;;;;31.20;14.80;;;;;;;7.40;94.18;100842.94;105851;1273;22728;-64
2022/09/23 07:31:35;;;;;;;32.50;13.50;;;;;;;7.51;94.31;100842.04;105676;1271;22771;-65
2022/09/23 07:34:08;;;;;;;32.70;15.00;;;;;;;7.61;94.23;100839.77;105723;1273;22694;-64
2022/09/23 07:36:41;;;;;;;29.90;13.80;;;;;;;7.73;94.43;100844.31;105712;1273;22614;-64
2022/09/23 07:39:13;;;;;;;30.70;15.30;;;;;;;7.83;94.44;100842.87;105802;1272;22537;-64
2022/09/23 07:41:45;;;;;;;30.80;14.20;;;;;;;7.94;94.34;100849.48;105833;1273;25408;-64
2022/09/23 07:44:20;;;;;;;33.80;15.70;;;;;;;8.06;94.76;100846.24;105946;1273;22673;-64
2022/09/23 07:46:53;;;;;;;32.40;14.60;;;;;;;8.19;94.62;100841.35;105724;1271;23126;-64
2022/09/23 07:49:25;;;;;;;33.50;13.80;;;;;;;8.28;94.34;100838.65;105681;1271;26062;-65
2022/09/23 07:51:57;;;;;;;32.20;13.50;;;;;;;8.36;94.28;100837.30;105841;1273;22532;-65
2022/09/23 07:54:30;;;;;;;28.40;13.20;;;;;;;8.45;93.91;100840.31;106030;1273;27627;-63
2022/09/23 07:57:02;;;;;;;34.10;12.70;;;;;;;8.55;93.92;100844.05;105977;1271;26012;-65
2022/09/23 07:59:34;;;;;;;28.10;12.30;;;;;;;8.65;94.13;100844.70;106306;1273;22565;-64
2022/09/23 08:02:06;;;;;;;36.60;13.20;;;;;;;8.77;93.83;100841.59;106177;1273;22661;-64
2022/09/23 08:04:37;;;;;;;32.70;12.80;;;;;;;8.87;93.61;100838.20;105859;1273;25001;-65
2022/09/23 08:07:12;;;;;;;29.50;12.60;;;;;;;8.95;93.31;100833.92;105778;1273;22658;-65
2022/09/23 08:09:44;;;;;;;30.80;11.90;;;;;;;9.04;92.80;100834.88;105941;1273;23632;-65
2022/09/23 08:12:18;;;;;;;26.10;10.30;;;;;;;9.12;92.65;100831.16;105858;1272;22548;-65
2022/09/23 08:14:49;;;;;;;27.60;10.40;;;;;;;9.22;92.93;100826.30;105772;1273;25425;-65
2022/09/23 08:17:21;;;;;;;25.00;8.80;;;;;;;9.31;92.70;100819.38;106124;1273;24335;-65
2022/09/23 08:19:52;;;;;;;28.40;9.40;;;;;;;9.38;92.13;100815.20;106016;1273;22608;-65
2022/09/23 08:22:23;;;;;;;29.20;11.80;;;;;;;9.44;92.20;100813.22;105789;1271;22565;-65
2022/09/23 08:24:55;;;;;;;24.60;9.10;;;;;;;9.53;92.41;100808.23;105808;1273;25297;-65
2022/09/23 08:27:28;;;;;;;24.00;7.90;;;;;;;9.64;92.27;100805.16;105698;1273;22567;-66
2022/09/23 08:29:59;;;;;;;26.60;9.10;;;;;;;9.73;91.62;100800.02;105733;1271;22640;-66
2022/09/23 08:32:31;;;;;;;31.10;9.70;;;;;;;9.80;91.60;100796.29;105842;1273;22531;-64
2022/09/23 08:35:03;;;;;;;22.20;6.20;;;;;;;9.91;91.70;100800.53;105669;1271;22538;-66
2022/09/23 08:37:35;;;;;;;17.50;5.60;;;;;;;10.07;91.38;100803.46;105695;1273;24280;-64
2022/09/23 08:40:08;;;;;;;21.60;5.20;;;;;;;10.18;90.73;100802.39;105793;1273;22635;-65
2022/09/23 08:42:42;;;;;;;18.50;5.70;;;;;;;10.26;90.04;100802.67;105852;1273;22550;-65
2022/09/23 08:45:19;;;;;;;21.10;5.60;;;;;;;10.29;89.88;100802.47;105844;1273;26498;-68
2022/09/23 08:47:56;;;;;;;16.30;4.50;;;;;;;10.30;89.85;100799.56;105646;1273;22572;-66
2022/09/23 08:50:36;;;;;;;19.00;4.50;;;;;;;10.41;90.34;100800.46;105711;1273;25359;-66
2022/09/23 08:53:14;;;;;;;17.40;4.50;;;;;;;10.55;90.14;100802.23;105686;1273;22711;-67
2022/09/23 08:55:49;;;;;;;18.00;5.20;;;;;;;10.68;89.79;100799.53;105764;1273;25521;-65
2022/09/23 08:58:42;;;;;;;17.50;4.40;;;;;;;10.77;89.54;100797.75;105730;1273;22543;-65
2022/09/23 09:01:23;;;;;;;16.40;4.50;;;;;;;10.84;88.80;100799.52;105668;1273;22787;-64
2022/09/23 09:03:56;;;;;;;14.30;3.50;;;;;;;10.94;88.97;100797.60;105943;1270;23316;-65
2022/09/23 09:06:34;;;;;;;11.30;2.70;;;;;;;11.08;88.18;100794.88;105875;1273;25393;-65
2022/09/23 09:09:13;;;;;;;10.00;2.50;;;;;;;11.17;87.26;100799.98;105957;1271;26504;-65
2022/09/23 09:11:50;;;;;;;12.80;3.70;;;;;;;11.28;87.09;100793.70;105741;1273;22655;-65
2022/09/23 09:14:26;;;;;;;11.50;3.00;;;;;;;11.34;87.20;100794.52;105815;1273;24344;-67
2022/09/23 09:17:01;;;;;;;15.30;4.40;;;;;;;11.36;86.67;100793.48;105764;1273;25420;-66
2022/09/23 09:19:58;;;;;;;12.30;3.40;;;;;;;11.38;86.53;100793.61;105789;1273;22528;-65
2022/09/23 09:22:48;;;;;;;11.50;3.20;;;;;;;11.42;86.21;100795.43;105697;1273;22693;-66
2022/09/23 09:25:38;;;;;;;11.50;2.40;;;;;;;11.54;85.96;100795.69;105654;1273;22623;-65
2022/09/23 09:28:17;;;;;;;8.20;2.10;;;;;;;11.68;85.50;100794.39;105697;1272;24428;-66
2022/09/23 09:30:54;;;;;;;8.00;1.80;;;;;;;11.76;84.72;100790.64;105742;1273;22556;-67
2022/09/23 09:33:32;;;;;;;6.40;1.70;;;;;;;11.84;85.06;100791.91;105686;1273;22558;-66
2022/09/23 09:36:23;;;;;;;5.00;1.10;;;;;;;11.96;84.94;100790.10;105737;1273;22732;-66
2022/09/23 09:38:55;;;;;;;5.10;1.10;;;;;;;12.09;82.75;100789.86;105860;1271;22564;-66
2022/09/23 09:41:30;;;;;;;6.10;1.30;;;;;;;12.11;82.67;100786.23;105905;1273;22623;-66
2022/09/23 09:44:09;;;;;;;6.40;1.40;;;;;;;12.11;82.87;100785.84;105709;1273;22553;-66
2022/09/23 09:46:55;;;;;;;8.10;1.40;;;;;;;12.18;82.57;100789.65;105744;1273;24330;-66
2022/09/23 09:49:34;;;;;;;7.90;1.60;;;;;;;12.28;82.00;100786.34;105820;1273;25360;-67
2022/09/23 09:52:23;;;;;;;2.40;0.60;;;;;;;12.34;81.96;100785.00;105974;1273;24309;-66
2022/09/23 09:54:59;;;;;;;2.40;0.40;;;;;;;12.40;80.65;100781.46;105870;1273;22696;-66
2022/09/23 09:57:38;;;;;;;1.90;0.50;;;;;;;12.50;80.18;100779.57;105668;1273;25246;-66
2022/09/23 10:00:49;;;;;;;1.50;0.50;;;;;;;12.62;80.17;100776.79;105686;1273;22584;-66
2022/09/23 10:03:31;;;;;;;6.60;0.80;;;;;;;12.68;79.49;100777.06;105107;1284;22568;-67
2022/09/23 10:06:16;;;;;;;3.30;0.70;;;;;;;12.68;79.13;100773.14;104997;1284;25403;-66
2022/09/23 10:09:05;;;;;;;2.70;0.60;;;;;;;12.73;79.08;100771.36;104846;1284;22605;-68
2022/09/23 10:11:36;;;;;;;6.70;0.90;;;;;;;12.84;79.43;100770.49;105200;1284;22780;-66
2022/09/23 10:14:16;;;;;;;4.70;0.80;;;;;;;12.91;78.70;100767.77;105060;1284;25641;-66
2022/09/23 10:17:04;;;;;;;6.80;1.20;;;;;;;13.02;77.97;100770.38;104950;1284;25497;-67
2022/09/23 10:19:38;;;;;;;7.40;0.90;;;;;;;13.09;77.04;100766.53;104988;1284;22785;-66
2022/09/23 10:22:19;;;;;;;4.50;1.00;;;;;;;13.11;77.08;100762.27;105228;1284;22557;-66
2022/09/23 10:24:54;;;;;;;6.20;0.90;;;;;;;13.10;76.61;100759.30;105068;1284;25425;-67
2022/09/23 10:27:34;;;;;;;5.10;0.70;;;;;;;13.11;76.75;100759.73;105401;1284;22550;-68
2022/09/23 10:30:20;;;;;;;4.40;0.70;;;;;;;13.13;76.70;100758.45;105216;1284;25878;-67
2022/09/23 10:32:53;;;;;;;7.50;0.70;;;;;;;13.16;76.22;100756.05;105237;1284;24265;-67
2022/09/23 10:35:27;;;;;;;0.50;0.10;;;;;;;13.22;75.10;100752.77;104977;1284;25537;-67
2022/09/23 10:38:00;;;;;;;1.80;0.30;;;;;;;13.33;74.59;100747.70;105038;1284;25429;-68
2022/09/23 10:46:46;;;;;;;2.60;0.20;;;;;;;13.55;72.00;100740.29;105634;1273;23026;-67
2022/09/23 10:49:35;;;;;;;3.20;0.30;;;;;;;13.60;70.52;100738.06;105721;1273;24272;-67
2022/09/23 10:52:22;;;;;;;2.70;0.20;;;;;;;13.64;71.38;100732.41;105770;1272;22671;-67
2022/09/23 10:55:07;;;;;;;2.20;0.40;;;;;;;13.68;71.63;100732.58;105985;1273;25313;-68
2022/09/23 10:57:55;;;;;;;5.10;0.30;;;;;;;13.72;71.93;100726.46;105804;1273;25248;-68
2022/09/23 11:00:36;;;;;;;2.20;0.60;;;;;;;13.77;71.96;100724.19;105710;1273;22605;-68
2022/09/23 11:03:44;;;;;;;3.40;0.50;;;;;;;13.85;71.96;100718.27;106135;1271;22743;-68
2022/09/23 11:06:24;;;;;;;4.30;0.40;;;;;;;14.01;70.89;100715.98;106169;1272;22522;-67
2022/09/23 11:08:59;;;;;;;;;;;;;;;14.16;70.21;100717.80;106240;1272;22707;-67
2022/09/23 11:11:44;;;;;;;2.00;0.30;;;;;;;14.30;69.84;100712.98;106073;1273;22534;-67
2022/09/23 11:14:30;;;;;;;2.20;0.30;;;;;;;14.43;69.42;100710.23;106297;1271;22574;-67
2022/09/23 11:17:16;;;;;;;3.60;0.30;;;;;;;14.47;68.19;100701.68;105770;1271;25430;-67
2022/09/23 11:20:02;;;;;;;2.20;0.40;;;;;;;14.51;67.04;100701.38;105837;1273;22708;-67
2022/09/23 11:22:49;;;;;;;3.10;0.50;;;;;;;14.49;66.86;100695.48;105845;1273;24093;-67
2022/09/23 11:25:29;;;;;;;1.70;0.30;;;;;;;14.46;66.51;100696.88;106029;1273;22538;-68
2022/09/23 11:28:28;;;;;;;3.00;0.50;;;;;;;14.38;66.07;100693.73;105897;1273;22531;-68
2022/09/23 11:31:09;;;;;;;1.80;0.30;;;;;;;14.33;66.74;100689.42;105818;1273;24305;-67
2022/09/23 11:33:56;;;;;;;4.20;0.40;;;;;;;14.29;66.85;100686.62;105875;1273;23786;-67
2022/09/23 11:36:35;;;;;;;3.20;0.50;;;;;;;14.25;66.69;100681.75;106034;1273;25245;-68
2022/09/23 11:39:15;;;;;;;4.50;0.40;;;;;;;14.22;66.06;100672.69;105981;1273;23144;-68
2022/09/23 11:41:49;;;;;;;3.50;0.50;;;;;;;14.24;65.68;100665.83;105977;1273;25269;-68
2022/09/23 11:44:26;;;;;;;0.80;0.20;;;;;;;14.25;65.61;100664.10;106225;1273;25482;-68
2022/09/23 11:47:03;;;;;;;1.60;0.30;;;;;;;14.28;65.12;100662.19;106104;1273;22555;-67
2022/09/23 11:49:39;;;;;;;1.10;0.20;;;;;;;14.38;65.02;100663.14;106082;1273;22544;-68
2022/09/23 11:52:18;;;;;;;1.40;0.30;;;;;;;14.50;64.58;100656.25;106129;1273;22543;-68
2022/09/23 11:54:55;;;;;;;3.00;0.20;;;;;;;14.57;64.25;100656.02;106199;1273;22550;-68
2022/09/23 11:57:34;;;;;;;1.50;0.30;;;;;;;14.71;63.90;100651.85;106135;1273;25559;-68
2022/09/23 12:00:16;;;;;;;0.80;0.10;;;;;;;14.78;63.19;100650.48;106240;1273;22561;-69
2022/09/23 12:03:00;;;;;;;0.90;0.20;;;;;;;14.84;62.55;100645.12;106247;1273;24196;-69
2022/09/23 12:05:36;;;;;;;0.70;0.10;;;;;;;14.91;61.97;100646.29;106295;1273;22638;-68